Appleton, New York
Current Conditions -  °F | °C
As of 2:53 PM on Thursday 18 Dec 2014 (Local Time) from KIAG Reporting Station
Overcast Overcast  
Wind Chill: 22°   Ceiling: 1600
Heat Index: 31°   Visibility: 10mi
Dew Point: 27°   Wind: 10mph
Humidity: 85%   Direction: 270°W
Pressure: 30.05"   Gusts: NA
Location:  43.33°N, 78.65°W
Report Text: KIAG 181953Z 27009KT 10SM OVC016 M01/M03 A3005 RMK AO2 FZDZE31 SLP192 P0000 I1000 T10061028
Loading
Personal Weather Stations






























Interactive Weather Map New forecast layout! Learn more

10-Day Weather Forecast

Advertisements
Track Severe Weather on mobile